This is the latest recevied weather packets stored in our database for station/object KC2G. If no packets are shown the sender has not sent any weather packets the latest 10 day(s).
| Time | Temp. | Humidity | Pressure | Rain* | Wind** | Luminosity | Snow |
|---|---|---|---|---|---|---|---|
| 1777829455 | 12.22° C | 38% | 1010.4 hPa | 0 mm | 1.34 m/s, 288° | - | - |
| 1777828554 | 12.22° C | 40% | 1010.7 hPa | 0 mm | 1.34 m/s, 292° | - | - |
| 1777827655 | 11.67° C | 39% | 1010.7 hPa | 0 mm | 0.89 m/s, 298° | - | - |
| 1777826754 | 10.56° C | 44% | 1011.1 hPa | 0 mm | 0.89 m/s, 261° | - | - |
| 1777825855 | 11.11° C | 43% | 1011 hPa | 0 mm | 0.89 m/s, 229° | - | - |
| 1777824955 | 11.11° C | 40% | 1011 hPa | 0 mm | 1.34 m/s, 310° | - | - |
| 1777824055 | 10° C | 42% | 1011.2 hPa | 0 mm | 0.89 m/s, 283° | - | - |
| 1777823155 | 10.56° C | 41% | 1011.2 hPa | 0 mm | 0.45 m/s, 292° | - | - |
| 1777822255 | 10.56° C | 37% | 1011.1 hPa | 0 mm | 0.89 m/s, 277° | - | - |
| 1777821355 | 10° C | 40% | 1011.2 hPa | 0 mm | 0.89 m/s, 279° | - | - |
| 1777820454 | 10° C | 44% | 1011.3 hPa | 0 mm | 0.45 m/s, 291° | - | - |
| 1777819554 | 10.56° C | 42% | 1011.2 hPa | 0 mm | 0.89 m/s, 269° | - | - |
| 1777818655 | 10.56° C | 46% | 1011.3 hPa | 0 mm | 0.89 m/s, 293° | - | - |
| 1777817754 | 10° C | 48% | 1011.4 hPa | 0 mm | 0.89 m/s, 274° | - | - |
| 1777816855 | 10° C | 50% | 1011.5 hPa | 0 mm | 0.89 m/s, 277° | - | - |
| 1777815955 | 9.44° C | 50% | 1011.5 hPa | 0 mm | 0.89 m/s, 271° | - | - |
| 1777815055 | 8.89° C | 52% | 1011.6 hPa | 0 mm | 0.89 m/s, 295° | - | - |
| 1777814155 | 8.89° C | 54% | 1011.6 hPa | 0 mm | 0.89 m/s, 267° | - | - |
| 1777813445 | 8.33° C | 57% | 1011.7 hPa | 0 mm | 0.89 m/s, 270° | - | - |
| 1777813254 | 8.33° C | 57% | 1011.7 hPa | 0 mm | 0.89 m/s, 270° | - | - |
| 1777812354 | 7.78° C | 58% | 1011.8 hPa | 0 mm | 0.89 m/s, 251° | - | - |
| 1777811455 | 7.22° C | 59% | 1011.9 hPa | 0 mm | 0.89 m/s, 309° | - | - |
| 1777810555 | 6.11° C | 64% | 1012 hPa | 0 mm | 0.45 m/s, 302° | - | - |
| 1777809970 | 6.11° C | 66% | 1012 hPa | 0 mm | 0.45 m/s, 321° | - | - |
| 1777809793 | 6.11° C | 66% | 1012 hPa | 0 mm | 0.45 m/s, 321° | - | - |
* Rain latest hour (hover to see other rain measurements)
** Current wind speed in m/s (hover to see current wind gust speed)